createdAt,value
2019-03-04T00:01:48.306Z,19.13
2019-03-04T00:04:17.486Z,14.97
2019-03-04T00:06:46.635Z,16.93
2019-03-04T00:09:15.790Z,18.17
2019-03-04T00:11:44.970Z,18.23
2019-03-04T00:14:14.145Z,17.00
2019-03-04T00:16:43.302Z,18.93
2019-03-04T00:19:12.537Z,14.53
2019-03-04T00:21:41.702Z,16.13
2019-03-04T00:24:10.929Z,17.27
2019-03-04T00:26:40.196Z,16.07
2019-03-04T00:29:09.362Z,12.93
2019-03-04T00:31:38.509Z,18.90
2019-03-04T00:34:07.694Z,14.37
2019-03-04T00:36:37.225Z,16.27
2019-03-04T00:39:10.419Z,12.33
2019-03-04T00:41:39.624Z,16.73
2019-03-04T00:44:08.870Z,11.77
2019-03-04T00:46:38.056Z,10.20
2019-03-04T00:49:07.214Z,13.07
2019-03-04T00:51:36.431Z,19.47
2019-03-04T00:54:05.601Z,13.00
2019-03-04T00:56:34.890Z,15.97
2019-03-04T00:59:04.074Z,12.77
2019-03-04T01:01:33.232Z,12.37
2019-03-04T01:04:02.438Z,13.93
2019-03-04T01:06:31.598Z,11.97
2019-03-04T01:09:00.865Z,11.87
2019-03-04T01:11:30.059Z,11.07
2019-03-04T01:13:59.243Z,13.80
2019-03-04T01:16:28.463Z,11.70
2019-03-04T01:18:57.609Z,12.43
2019-03-04T01:21:26.753Z,13.00
2019-03-04T01:23:56.052Z,10.63
2019-03-04T01:26:25.257Z,11.77
2019-03-04T01:28:54.481Z,13.07
2019-03-04T01:31:23.725Z,12.73
2019-03-04T01:33:52.879Z,13.00
2019-03-04T01:36:22.097Z,11.80
2019-03-04T01:38:51.374Z,12.63
2019-03-04T01:41:20.516Z,10.20
2019-03-04T01:43:49.734Z,10.17
2019-03-04T01:46:18.885Z,16.33
2019-03-04T01:48:48.058Z,16.17
2019-03-04T01:51:17.238Z,14.30
2019-03-04T01:53:46.393Z,9.97
2019-03-04T01:56:15.529Z,16.67
2019-03-04T01:58:44.682Z,11.43
2019-03-04T02:01:13.814Z,7.23
2019-03-04T02:03:43.029Z,12.73
2019-03-04T02:06:12.241Z,13.13
2019-03-04T02:08:41.417Z,10.23
2019-03-04T02:11:10.631Z,10.93
2019-03-04T02:13:39.789Z,12.87
2019-03-04T02:16:08.954Z,10.17
2019-03-04T02:18:38.114Z,10.50
2019-03-04T02:21:07.277Z,10.20
2019-03-04T02:23:36.460Z,15.40
2019-03-04T02:26:33.019Z,8.83
2019-03-04T02:29:02.198Z,9.93
2019-03-04T02:31:31.362Z,9.80
2019-03-04T02:34:00.504Z,13.57
2019-03-04T02:36:29.729Z,7.20
2019-03-04T02:38:58.866Z,8.57
2019-03-04T02:41:28.010Z,9.20
2019-03-04T02:43:57.196Z,9.60
2019-03-04T02:46:26.383Z,7.33
2019-03-04T02:48:55.627Z,9.33
2019-03-04T02:51:24.833Z,12.00
2019-03-04T02:53:54.045Z,8.37
2019-03-04T02:56:23.205Z,8.97
2019-03-04T02:58:52.414Z,10.53
2019-03-04T03:01:21.632Z,7.47
2019-03-04T03:03:50.769Z,10.67
2019-03-04T03:06:19.950Z,8.13
2019-03-04T03:08:49.157Z,7.57
2019-03-04T03:11:18.303Z,9.07
2019-03-04T03:13:47.470Z,8.67
2019-03-04T03:16:16.619Z,10.63
2019-03-04T03:18:45.772Z,11.07
2019-03-04T03:21:14.931Z,9.03
2019-03-04T03:23:44.073Z,9.33
2019-03-04T03:26:13.227Z,8.73
2019-03-04T03:28:42.490Z,10.27
2019-03-04T03:31:11.734Z,9.97
2019-03-04T03:33:40.949Z,6.23
2019-03-04T03:36:10.246Z,10.97
2019-03-04T03:38:39.551Z,9.27
2019-03-04T03:41:08.767Z,9.80
2019-03-04T03:43:37.922Z,6.80
2019-03-04T03:46:07.145Z,10.27
2019-03-04T03:48:36.459Z,11.10
2019-03-04T03:51:05.742Z,10.30
2019-03-04T03:53:34.907Z,14.77
2019-03-04T03:56:04.058Z,11.53
2019-03-04T03:58:33.272Z,9.03
2019-03-04T04:01:02.440Z,8.93
2019-03-04T04:03:31.591Z,9.63
2019-03-04T04:06:00.774Z,8.60
2019-03-04T04:08:29.908Z,8.27
2019-03-04T04:10:59.075Z,11.93
2019-03-04T04:13:28.358Z,11.40
2019-03-04T04:15:57.511Z,10.33
2019-03-04T04:18:26.686Z,10.57
2019-03-04T04:20:55.874Z,9.53
2019-03-04T04:23:25.074Z,11.33
2019-03-04T04:25:54.315Z,14.27
2019-03-04T04:28:23.452Z,9.83
2019-03-04T04:30:52.670Z,8.93
2019-03-04T04:33:21.910Z,9.20
2019-03-04T04:35:51.078Z,10.23
2019-03-04T04:38:20.225Z,14.93
2019-03-04T04:40:49.401Z,14.23
2019-03-04T04:43:18.546Z,11.27
2019-03-04T04:45:47.725Z,11.63
2019-03-04T04:48:16.938Z,10.80
2019-03-04T04:50:46.085Z,13.50
2019-03-04T04:53:15.343Z,11.60
2019-03-04T04:55:44.509Z,10.23
2019-03-04T04:58:14.066Z,10.60
2019-03-04T05:00:43.232Z,10.50
2019-03-04T05:03:12.369Z,11.90
2019-03-04T05:05:41.533Z,11.27
2019-03-04T05:08:10.674Z,10.70
2019-03-04T05:10:39.829Z,10.13
2019-03-04T05:13:09.070Z,10.30
2019-03-04T05:15:38.209Z,13.07
2019-03-04T05:18:07.449Z,11.67
2019-03-04T05:20:36.610Z,13.53
2019-03-04T05:23:05.858Z,11.50
2019-03-04T05:25:35.033Z,13.63
2019-03-04T05:28:04.177Z,13.30
2019-03-04T05:30:33.381Z,14.13
2019-03-04T05:33:02.553Z,12.27
2019-03-04T05:35:31.814Z,16.47
2019-03-04T05:38:00.953Z,14.90
2019-03-04T05:40:30.135Z,12.43
2019-03-04T05:42:59.287Z,12.97
2019-03-04T05:45:28.429Z,12.90
2019-03-04T05:47:57.626Z,12.47
2019-03-04T05:50:26.921Z,16.37
2019-03-04T05:52:56.080Z,15.20
2019-03-04T05:55:25.265Z,15.70
2019-03-04T05:57:54.419Z,12.50
2019-03-04T06:00:24.553Z,15.03
2019-03-04T06:02:53.741Z,16.07
2019-03-04T06:05:22.933Z,17.60
2019-03-04T06:08:00.877Z,12.33
2019-03-04T06:10:30.030Z,15.30
2019-03-04T06:12:59.208Z,16.10
2019-03-04T06:15:28.356Z,15.00
2019-03-04T06:17:57.495Z,16.53
2019-03-04T06:20:26.646Z,17.23
2019-03-04T06:22:55.785Z,17.67
2019-03-04T06:25:28.627Z,19.17
2019-03-04T06:27:57.952Z,22.00
2019-03-04T06:30:27.720Z,18.87
2019-03-04T06:32:56.950Z,18.03
2019-03-04T06:35:26.113Z,19.77
2019-03-04T06:37:55.430Z,20.63
2019-03-04T06:40:26.058Z,20.43
2019-03-04T06:42:55.297Z,18.17
2019-03-04T06:45:24.473Z,17.03
2019-03-04T06:47:53.698Z,19.77
2019-03-04T06:50:54.089Z,19.43
2019-03-04T06:53:39.470Z,20.60
2019-03-04T06:56:20.772Z,17.40
2019-03-04T06:58:51.929Z,15.50
2019-03-04T07:01:33.419Z,15.60
2019-03-04T07:04:20.627Z,17.27
2019-03-04T07:06:49.961Z,19.30
2019-03-04T07:09:20.361Z,17.07
2019-03-04T07:11:50.681Z,22.33
2019-03-04T07:14:19.825Z,14.33
2019-03-04T07:16:50.319Z,16.50
2019-03-04T07:19:27.502Z,15.53
2019-03-04T07:21:56.753Z,17.27
2019-03-04T07:24:26.070Z,15.27
2019-03-04T07:26:55.266Z,17.93
2019-03-04T07:29:24.442Z,16.80
2019-03-04T07:31:53.770Z,16.90
2019-03-04T07:34:23.026Z,16.43
2019-03-04T07:36:52.227Z,17.40
2019-03-04T07:39:21.402Z,14.90
2019-03-04T07:41:57.966Z,18.73
2019-03-04T07:44:27.114Z,18.43
2019-03-04T07:46:56.293Z,16.63
2019-03-04T07:49:25.469Z,16.60
2019-03-04T07:51:55.203Z,17.17
2019-03-04T07:54:24.366Z,17.50
2019-03-04T07:56:54.265Z,15.47
2019-03-04T07:59:23.506Z,15.53
2019-03-04T08:01:52.690Z,17.60
2019-03-04T08:04:21.841Z,18.40
2019-03-04T08:06:51.286Z,18.47
2019-03-04T08:09:55.489Z,16.97
2019-03-04T08:12:55.313Z,17.63
2019-03-04T08:15:24.878Z,20.10
2019-03-04T08:17:54.234Z,17.20
2019-03-04T08:20:23.486Z,22.27
2019-03-04T08:22:52.710Z,16.03
2019-03-04T08:25:21.957Z,12.97
2019-03-04T08:27:51.634Z,13.10
2019-03-04T08:30:22.636Z,10.77
2019-03-04T08:32:51.789Z,17.40
2019-03-04T08:35:20.978Z,14.13
2019-03-04T08:37:50.114Z,12.13
2019-03-04T08:40:19.481Z,14.33
2019-03-04T08:42:48.690Z,14.17
2019-03-04T08:45:19.434Z,13.17
2019-03-04T08:47:48.641Z,13.43
2019-03-04T08:50:18.024Z,12.67
2019-03-04T08:52:47.261Z,12.30
2019-03-04T08:55:17.177Z,11.90
2019-03-04T08:57:46.374Z,15.90
2019-03-04T09:00:25.421Z,23.17
2019-03-04T09:02:54.797Z,12.47
2019-03-04T09:05:24.009Z,11.20
2019-03-04T09:07:53.249Z,10.87
2019-03-04T09:10:27.174Z,9.73
2019-03-04T09:12:56.352Z,9.13
2019-03-04T09:15:25.538Z,10.47
2019-03-04T09:17:54.826Z,9.43
2019-03-04T09:20:25.473Z,10.73
2019-03-04T09:22:55.214Z,8.57
2019-03-04T09:25:32.981Z,9.13
2019-03-04T09:28:02.331Z,12.93
2019-03-04T09:30:31.581Z,8.97
2019-03-04T09:33:00.854Z,8.90
2019-03-04T09:35:32.426Z,10.83
2019-03-04T09:38:00.961Z,8.57
2019-03-04T09:40:30.775Z,7.97
2019-03-04T09:43:00.234Z,9.00
2019-03-04T09:45:38.381Z,10.87
2019-03-04T09:48:00.377Z,11.63
2019-03-04T09:50:29.586Z,8.50
2019-03-04T09:52:58.761Z,10.87
2019-03-04T09:55:28.228Z,11.43
2019-03-04T09:57:57.433Z,12.67
2019-03-04T10:00:32.329Z,10.43
2019-03-04T10:03:38.642Z,8.67
2019-03-04T10:06:50.481Z,14.87
2019-03-04T10:10:02.836Z,10.77
2019-03-04T10:12:54.125Z,8.43
2019-03-04T10:15:48.006Z,9.90
2019-03-04T10:19:04.832Z,11.70
2019-03-04T10:21:52.129Z,13.37
2019-03-04T10:24:52.501Z,17.40
2019-03-04T10:28:03.725Z,13.27
2019-03-04T10:31:26.108Z,12.43
2019-03-04T10:34:17.465Z,12.90
2019-03-04T10:37:18.620Z,8.83
2019-03-04T10:40:04.989Z,10.93
2019-03-04T10:43:14.237Z,9.40
2019-03-04T10:46:01.439Z,9.30
2019-03-04T10:48:30.698Z,9.35
2019-03-04T10:50:59.973Z,10.48
2019-03-04T10:53:29.234Z,12.00
2019-03-04T10:55:58.460Z,8.08
2019-03-04T10:58:27.717Z,12.70
2019-03-04T11:00:56.887Z,10.98
2019-03-04T11:03:26.059Z,11.15
2019-03-04T11:05:55.279Z,9.08
2019-03-04T11:08:24.445Z,12.00
2019-03-04T11:10:53.590Z,9.65
2019-03-04T11:13:22.742Z,10.50
2019-03-04T11:15:51.969Z,13.90
2019-03-04T11:18:21.829Z,10.63
2019-03-04T11:20:51.020Z,16.17
2019-03-04T11:23:21.350Z,9.40
2019-03-04T11:25:50.505Z,7.87
2019-03-04T11:28:19.729Z,6.90
2019-03-04T11:30:49.009Z,6.37
2019-03-04T11:33:18.197Z,7.37
2019-03-04T11:35:47.414Z,8.33
2019-03-04T11:38:38.582Z,13.40
2019-03-04T11:41:08.864Z,7.77
2019-03-04T11:43:38.125Z,8.03
2019-03-04T11:46:07.363Z,10.17
2019-03-04T11:48:36.699Z,11.63
2019-03-04T11:51:05.970Z,9.57
2019-03-04T11:53:35.145Z,8.50
2019-03-04T11:56:04.305Z,12.20
2019-03-04T11:58:33.505Z,9.03
2019-03-04T12:01:15.356Z,8.17
2019-03-04T12:03:44.605Z,6.50
2019-03-04T12:06:13.878Z,9.33
2019-03-04T12:08:43.198Z,12.23
2019-03-04T12:11:12.445Z,9.67
2019-03-04T12:13:41.691Z,12.60
2019-03-04T12:16:10.915Z,6.80
2019-03-04T12:18:40.054Z,9.40
2019-03-04T12:21:09.292Z,10.20
2019-03-04T12:23:38.438Z,9.67
2019-03-04T12:26:07.646Z,9.40
2019-03-04T12:28:36.874Z,7.87
2019-03-04T12:31:06.313Z,7.70
2019-03-04T12:33:35.486Z,9.47
2019-03-04T12:36:05.064Z,8.30
2019-03-04T12:38:34.270Z,10.30
2019-03-04T12:41:06.299Z,10.33
2019-03-04T12:43:35.457Z,11.47
2019-03-04T12:46:04.770Z,9.90
2019-03-04T12:48:33.909Z,10.70
2019-03-04T12:51:03.131Z,8.67
2019-03-04T12:53:37.279Z,13.87
2019-03-04T12:56:03.546Z,11.20
2019-03-04T12:58:32.690Z,12.30
2019-03-04T13:01:01.890Z,9.37
2019-03-04T13:03:31.249Z,9.43
2019-03-04T13:06:00.484Z,8.97
2019-03-04T13:08:29.951Z,9.77
2019-03-04T13:10:59.213Z,9.17
2019-03-04T13:13:28.388Z,11.80
2019-03-04T13:15:58.117Z,7.33
2019-03-04T13:18:27.285Z,9.03
2019-03-04T13:20:56.465Z,16.73
2019-03-04T13:23:25.797Z,16.10
2019-03-04T13:25:55.023Z,19.13
2019-03-04T13:28:24.173Z,15.87
2019-03-04T13:30:53.437Z,20.77
2019-03-04T13:33:22.654Z,15.00
2019-03-04T13:35:51.912Z,14.87
2019-03-04T13:38:21.125Z,11.63
2019-03-04T13:40:50.423Z,16.93
2019-03-04T13:43:19.617Z,9.43
2019-03-04T13:45:48.794Z,13.40
2019-03-04T13:48:18.019Z,7.97
2019-03-04T13:50:47.241Z,11.10
2019-03-04T13:53:16.406Z,9.53
2019-03-04T13:55:45.588Z,6.30
2019-03-04T13:58:14.953Z,9.60
2019-03-04T14:00:44.237Z,12.17
2019-03-04T14:03:13.801Z,7.37
2019-03-04T14:05:42.956Z,10.00
2019-03-04T14:08:12.134Z,11.07
2019-03-04T14:10:41.320Z,8.60
2019-03-04T14:13:10.614Z,10.63
2019-03-04T14:15:40.425Z,11.53
2019-03-04T14:18:09.598Z,10.53
2019-03-04T14:20:38.798Z,11.07
2019-03-04T14:23:07.966Z,12.83
2019-03-04T14:25:37.211Z,11.40
2019-03-04T14:28:06.395Z,10.23
2019-03-04T14:30:35.621Z,11.53
2019-03-04T14:33:05.034Z,12.33
2019-03-04T14:35:34.462Z,12.10
2019-03-04T14:38:03.690Z,18.83
2019-03-04T14:40:32.874Z,16.63
2019-03-04T14:43:02.154Z,15.77
2019-03-04T14:45:31.444Z,17.97
2019-03-04T14:48:00.702Z,14.97
2019-03-04T14:50:29.957Z,14.13
2019-03-04T14:52:59.193Z,16.40
2019-03-04T14:55:28.438Z,35.67
2019-03-04T14:57:57.627Z,31.27
2019-03-04T15:00:38.170Z,26.03
2019-03-04T15:03:07.690Z,27.70
2019-03-04T15:05:36.860Z,22.17
2019-03-04T15:08:06.109Z,17.10
2019-03-04T15:10:35.369Z,18.17
2019-03-04T15:13:04.618Z,18.83
2019-03-04T15:15:33.805Z,11.87
2019-03-04T15:18:02.989Z,13.00
2019-03-04T15:20:33.618Z,13.50
2019-03-04T15:23:02.961Z,18.03
2019-03-04T15:25:32.239Z,16.47
2019-03-04T15:28:09.776Z,15.90
2019-03-04T15:30:39.109Z,16.00
2019-03-04T15:33:17.599Z,18.10
2019-03-04T15:35:39.231Z,12.97
2019-03-04T15:38:08.382Z,16.17
2019-03-04T15:40:37.596Z,18.97
2019-03-04T15:43:06.814Z,25.90
2019-03-04T15:45:36.850Z,26.13
2019-03-04T15:48:06.254Z,23.70
2019-03-04T15:50:35.402Z,20.47
2019-03-04T15:53:04.581Z,26.30
2019-03-04T15:55:33.792Z,25.13
2019-03-04T15:58:03.110Z,23.37
2019-03-04T16:00:32.666Z,25.43
2019-03-04T16:03:01.835Z,22.23
2019-03-04T16:05:31.090Z,27.80
2019-03-04T16:08:07.225Z,26.77
2019-03-04T16:10:32.662Z,23.87
2019-03-04T16:13:02.038Z,24.83
2019-03-04T16:15:31.252Z,24.00
2019-03-04T16:18:00.420Z,25.17
2019-03-04T16:20:29.677Z,25.97
2019-03-04T16:22:58.870Z,25.27
2019-03-04T16:25:28.022Z,28.00
2019-03-04T16:28:03.077Z,34.23
2019-03-04T16:30:32.310Z,32.47
2019-03-04T16:33:01.509Z,31.73
2019-03-04T16:35:30.750Z,34.20
2019-03-04T16:38:00.102Z,34.67
2019-03-04T16:40:29.469Z,33.23
2019-03-04T16:42:58.621Z,35.70
2019-03-04T16:45:27.800Z,36.50
2019-03-04T16:47:57.028Z,33.73
2019-03-04T16:50:26.251Z,43.07
2019-03-04T16:52:55.569Z,36.47
2019-03-04T16:55:24.769Z,34.07
2019-03-04T16:57:53.918Z,35.37
2019-03-04T17:00:23.185Z,36.30
2019-03-04T17:02:52.341Z,33.37
2019-03-04T17:05:21.537Z,27.70
2019-03-04T17:07:51.113Z,33.47
2019-03-04T17:10:20.406Z,35.93
2019-03-04T17:12:49.567Z,35.43
2019-03-04T17:15:19.405Z,38.20
2019-03-04T17:17:48.675Z,38.77
2019-03-04T17:20:18.532Z,39.13
2019-03-04T17:22:47.988Z,42.23
2019-03-04T17:25:17.526Z,40.43
2019-03-04T17:27:46.797Z,44.37
2019-03-04T17:30:17.904Z,41.23
2019-03-04T17:32:47.506Z,37.63
2019-03-04T17:35:18.289Z,39.20
2019-03-04T17:37:47.734Z,46.37
2019-03-04T17:40:17.197Z,48.63
2019-03-04T17:42:46.665Z,44.97
2019-03-04T17:45:16.862Z,43.17
2019-03-04T17:47:46.097Z,41.30
2019-03-04T17:50:18.566Z,49.93
2019-03-04T17:52:47.777Z,52.27
2019-03-04T17:55:17.014Z,45.73
2019-03-04T17:57:46.165Z,44.83
2019-03-04T18:00:16.679Z,44.67
2019-03-04T18:02:49.097Z,48.00
2019-03-04T18:05:18.265Z,43.00
2019-03-04T18:07:47.523Z,40.30
2019-03-04T18:10:22.057Z,42.00
2019-03-04T18:12:53.149Z,44.97
2019-03-04T18:15:36.401Z,48.63
2019-03-04T18:18:06.526Z,26.47
2019-03-04T18:20:36.213Z,24.40
2019-03-04T18:23:05.447Z,19.10
2019-03-04T18:25:58.449Z,15.80
2019-03-04T18:28:57.081Z,18.80
2019-03-04T18:31:28.493Z,20.83
2019-03-04T18:34:58.773Z,21.27
2019-03-04T18:38:09.897Z,29.17
2019-03-04T18:41:09.677Z,24.63
2019-03-04T18:44:01.918Z,26.07
2019-03-04T18:47:30.859Z,22.13
2019-03-04T18:50:00.290Z,25.77
2019-03-04T18:52:29.637Z,25.97
2019-03-04T18:54:58.802Z,26.07
2019-03-04T18:57:28.966Z,28.17
2019-03-04T18:59:58.186Z,26.23
2019-03-04T19:02:27.348Z,28.73
2019-03-04T19:04:56.489Z,27.70
2019-03-04T19:07:25.737Z,25.90
2019-03-04T19:09:54.914Z,27.83
2019-03-04T19:12:24.062Z,23.77
2019-03-04T19:14:53.203Z,21.17
2019-03-04T19:17:22.390Z,24.80
2019-03-04T19:19:51.609Z,16.93
2019-03-04T19:22:20.766Z,18.97
2019-03-04T19:24:49.963Z,14.87
2019-03-04T19:27:19.110Z,13.10
2019-03-04T19:29:48.262Z,15.60
2019-03-04T19:32:17.442Z,15.87
2019-03-04T19:34:46.697Z,19.90
2019-03-04T19:37:15.837Z,15.37
2019-03-04T19:39:45.093Z,18.57
2019-03-04T19:42:14.333Z,15.43
2019-03-04T19:44:43.478Z,14.57
2019-03-04T19:47:12.654Z,8.07
2019-03-04T19:49:41.906Z,8.30
2019-03-04T19:52:11.055Z,10.17
2019-03-04T19:54:40.185Z,8.27
2019-03-04T19:57:09.340Z,7.87
2019-03-04T19:59:38.478Z,6.10
2019-03-04T20:02:07.934Z,8.73
2019-03-04T20:04:37.149Z,8.57
2019-03-04T20:07:06.310Z,5.33
2019-03-04T20:09:38.685Z,6.93
2019-03-04T20:12:07.976Z,6.63
2019-03-04T20:14:37.114Z,9.00
2019-03-04T20:17:06.367Z,5.13
2019-03-04T20:19:36.931Z,8.00
2019-03-04T20:22:06.393Z,8.20
2019-03-04T20:24:35.558Z,14.40
2019-03-04T20:27:04.722Z,10.73
2019-03-04T20:29:33.877Z,9.33
2019-03-04T20:32:03.106Z,10.00
2019-03-04T20:34:32.322Z,10.07
2019-03-04T20:37:01.475Z,10.53
2019-03-04T20:39:30.695Z,11.33
2019-03-04T20:42:00.762Z,17.07
2019-03-04T20:44:30.102Z,18.63
2019-03-04T20:46:59.317Z,14.40
2019-03-04T20:49:28.502Z,15.00
2019-03-04T20:51:57.718Z,7.83
2019-03-04T20:54:27.286Z,10.60
2019-03-04T20:56:56.453Z,12.60
2019-03-04T20:59:25.655Z,11.17
2019-03-04T21:01:54.881Z,17.40
2019-03-04T21:04:24.097Z,16.00
2019-03-04T21:06:53.241Z,16.83
2019-03-04T21:09:22.589Z,11.77
2019-03-04T21:11:51.845Z,12.77
2019-03-04T21:14:20.993Z,13.23
2019-03-04T21:16:50.133Z,11.57
2019-03-04T21:19:19.417Z,8.60
2019-03-04T21:21:48.693Z,12.30
2019-03-04T21:24:17.841Z,10.87
2019-03-04T21:26:48.806Z,9.90
2019-03-04T21:29:30.162Z,12.23
2019-03-04T21:32:17.245Z,9.20
2019-03-04T21:35:33.690Z,9.33
2019-03-04T21:38:02.991Z,14.93
2019-03-04T21:40:37.909Z,17.17
2019-03-04T21:43:27.239Z,15.90
2019-03-04T21:46:46.025Z,13.30
2019-03-04T21:49:16.391Z,11.90
2019-03-04T21:52:19.533Z,13.50
2019-03-04T21:54:40.771Z,12.93
2019-03-04T21:57:31.774Z,10.63
2019-03-04T22:00:01.426Z,10.40
2019-03-04T22:02:41.389Z,14.63
2019-03-04T22:05:13.162Z,16.13
2019-03-04T22:07:42.776Z,17.90
2019-03-04T22:10:12.889Z,23.47
2019-03-04T22:12:42.589Z,21.30
2019-03-04T22:15:12.044Z,21.93
2019-03-04T22:17:41.337Z,21.77
2019-03-04T22:20:10.917Z,24.13
2019-03-04T22:22:40.086Z,21.07
2019-03-04T22:25:09.793Z,20.67
2019-03-04T22:27:39.010Z,23.23
2019-03-04T22:30:11.058Z,24.10
2019-03-04T22:32:40.324Z,25.10
2019-03-04T22:35:10.817Z,24.40
2019-03-04T22:37:40.090Z,24.90
2019-03-04T22:40:11.982Z,29.70
2019-03-04T22:42:41.233Z,26.63
2019-03-04T22:45:13.086Z,28.20
2019-03-04T22:47:42.270Z,29.63
2019-03-04T22:50:12.209Z,24.57
2019-03-04T22:52:41.441Z,28.27
2019-03-04T22:55:13.533Z,24.73
2019-03-04T22:57:42.837Z,25.57
2019-03-04T23:01:06.265Z,28.27
2019-03-04T23:03:35.537Z,27.90
2019-03-04T23:06:04.718Z,25.87
2019-03-04T23:08:33.878Z,23.77
2019-03-04T23:11:03.137Z,23.83
2019-03-04T23:13:58.522Z,25.03
2019-03-04T23:16:30.103Z,26.50
2019-03-04T23:18:59.269Z,23.50
2019-03-04T23:21:28.445Z,25.77
2019-03-04T23:23:57.648Z,20.20
2019-03-04T23:26:26.857Z,18.20
2019-03-04T23:28:56.029Z,18.53
2019-03-04T23:31:25.242Z,20.07
2019-03-04T23:33:54.398Z,19.90
2019-03-04T23:36:23.598Z,16.03
2019-03-04T23:38:52.753Z,17.07
2019-03-04T23:41:21.925Z,17.93
2019-03-04T23:43:51.161Z,14.63
2019-03-04T23:46:20.305Z,15.00
2019-03-04T23:48:49.462Z,16.43
2019-03-04T23:51:18.705Z,15.53
2019-03-04T23:53:47.867Z,14.67
2019-03-04T23:56:17.006Z,13.90
2019-03-04T23:58:46.181Z,16.20
